Time;durP1;ratioP1;P1;durP2;ratioP2;P2;SDS_P1;SDS_P2;PMS_P1;PMS_P2;Temp;Humidity;BMP_temperature;BMP_pressure;BME280_temperature;BME280_humidity;BME280_pressure;Samples;Min_cycle;Max_cycle;Signal;HPM_P1;HPM_P2
2023/06/11 00:02:24;;;;;;;4.82;4.32;;;;;28.30;101453.00;;;;5068206;28;20219;-80
2023/06/11 00:04:51;;;;;;;5.50;4.30;;;;;28.30;101452.00;;;;5068434;28;20294;-80
2023/06/11 00:07:19;;;;;;;5.82;5.22;;;;;28.30;101442.00;;;;5067294;28;20202;-80
2023/06/11 00:09:48;;;;;;;7.88;5.07;;;;;28.30;101449.00;;;;5067875;28;20198;-80
2023/06/11 00:12:15;;;;;;;8.82;4.55;;;;;28.20;101446.00;;;;5068509;28;20214;-81
2023/06/11 00:14:42;;;;;;;8.38;5.00;;;;;28.20;101442.00;;;;5067382;28;20229;-81
2023/06/11 00:17:11;;;;;;;6.30;4.78;;;;;28.20;101441.00;;;;5068272;28;20192;-80
2023/06/11 00:19:40;;;;;;;5.13;4.35;;;;;28.20;101440.00;;;;5067676;28;20226;-81
2023/06/11 00:22:08;;;;;;;7.22;5.10;;;;;28.20;101438.00;;;;5071293;28;20203;-81
2023/06/11 00:24:36;;;;;;;6.40;5.03;;;;;28.10;101437.00;;;;5087198;28;20214;-81
2023/06/11 00:27:05;;;;;;;6.50;4.32;;;;;28.10;101436.00;;;;5088007;28;20675;-81
2023/06/11 00:29:33;;;;;;;4.82;4.07;;;;;28.10;101432.00;;;;5087307;28;20567;-80
2023/06/11 00:32:00;;;;;;;7.18;4.75;;;;;28.10;101433.00;;;;5087448;28;20623;-80
2023/06/11 00:34:27;;;;;;;6.38;4.95;;;;;28.00;101429.00;;;;5087292;28;20210;-80
2023/06/11 00:36:55;;;;;;;4.82;4.43;;;;;28.00;101425.00;;;;5087517;28;20194;-81
2023/06/11 00:39:22;;;;;;;7.18;5.32;;;;;28.00;101420.00;;;;5089629;28;20214;-80
2023/06/11 00:41:49;;;;;;;5.75;4.95;;;;;28.00;101419.00;;;;5091968;28;20195;-80
2023/06/11 00:44:21;;;;;;;6.55;4.72;;;;;27.90;101423.00;;;;5091418;28;20648;-81
2023/06/11 00:46:51;;;;;;;5.45;4.93;;;;;27.90;101422.00;;;;5090756;28;20233;-80
2023/06/11 00:49:18;;;;;;;6.90;4.53;;;;;27.90;101424.00;;;;5091525;28;20210;-81
2023/06/11 00:51:46;;;;;;;5.22;4.72;;;;;27.90;101430.00;;;;5091762;28;20209;-80
2023/06/11 00:54:16;;;;;;;5.13;4.63;;;;;27.80;101427.00;;;;5091359;28;20466;-80
2023/06/11 00:56:43;;;;;;;6.22;5.28;;;;;27.80;101421.00;;;;5091137;28;20191;-80
2023/06/11 00:59:11;;;;;;;5.65;5.05;;;;;27.80;101422.00;;;;5090770;28;20191;-80
2023/06/11 01:01:46;;;;;;;5.85;4.78;;;;;27.80;101424.00;;;;5091235;28;20790;-80
2023/06/11 01:04:18;;;;;;;5.28;4.38;;;;;27.80;101425.00;;;;5079317;28;20727;-80
2023/06/11 01:06:49;;;;;;;5.18;4.55;;;;;27.70;101420.00;;;;5071524;28;20215;-80
2023/06/11 01:09:19;;;;;;;5.13;4.68;;;;;27.80;101432.00;;;;5070597;28;20226;-80
2023/06/11 01:11:48;;;;;;;7.07;5.07;;;;;27.70;101427.00;;;;5070296;28;20289;-80
2023/06/11 01:14:16;;;;;;;5.40;4.90;;;;;27.70;101426.00;;;;5070525;28;20200;-80
2023/06/11 01:16:48;;;;;;;7.05;5.43;;;;;27.70;101428.00;;;;5070146;28;20576;-80
2023/06/11 01:19:37;;;;;;;6.60;5.38;;;;;27.60;101427.00;;;;5070328;28;20207;-80
2023/06/11 01:22:13;;;;;;;5.57;4.85;;;;;27.60;101424.00;;;;5073132;28;20218;-81
2023/06/11 01:24:53;;;;;;;5.57;4.97;;;;;27.60;101423.00;;;;5090049;28;20197;-81
2023/06/11 01:27:33;;;;;;;5.60;4.05;;;;;27.60;101428.00;;;;5090560;28;20290;-80
2023/06/11 01:30:03;;;;;;;5.07;4.65;;;;;27.60;101425.00;;;;5090921;28;20205;-81
2023/06/11 01:32:31;;;;;;;6.15;5.55;;;;;27.60;101424.00;;;;5090198;28;20586;-80
2023/06/11 01:35:01;;;;;;;5.47;4.88;;;;;27.60;101426.00;;;;5089655;28;20253;-80
2023/06/11 01:37:32;;;;;;;6.82;5.82;;;;;27.60;101431.00;;;;5089122;28;20680;-80
2023/06/11 01:40:00;;;;;;;5.60;5.05;;;;;27.60;101426.00;;;;5090700;28;20201;-80
2023/06/11 01:42:27;;;;;;;7.72;5.53;;;;;27.60;101429.00;;;;5090066;28;20210;-81
2023/06/11 01:44:55;;;;;;;6.15;5.53;;;;;27.50;101431.00;;;;5090692;28;20202;-80
2023/06/11 01:47:24;;;;;;;6.28;5.60;;;;;27.50;101428.00;;;;5089574;28;20198;-81
2023/06/11 01:49:51;;;;;;;5.82;5.22;;;;;27.50;101425.00;;;;5090745;28;20202;-80
2023/06/11 01:52:18;;;;;;;5.43;4.93;;;;;27.50;101430.00;;;;5089793;28;20195;-80
2023/06/11 01:54:45;;;;;;;5.70;5.10;;;;;27.50;101424.00;;;;5081251;28;20206;-81
2023/06/11 01:57:14;;;;;;;7.50;6.47;;;;;27.50;101424.00;;;;5070340;28;20207;-80
2023/06/11 01:59:41;;;;;;;5.93;5.32;;;;;27.50;101420.00;;;;5069399;28;20209;-81
2023/06/11 02:02:09;;;;;;;6.05;5.28;;;;;27.50;101422.00;;;;5069534;28;20218;-80
2023/06/11 02:04:37;;;;;;;7.50;5.28;;;;;27.40;101423.00;;;;5069740;28;20210;-80
2023/06/11 02:07:05;;;;;;;7.40;5.60;;;;;27.40;101424.00;;;;5069792;28;20222;-81
2023/06/11 02:09:32;;;;;;;6.45;5.82;;;;;27.40;101421.00;;;;5070090;28;20264;-80
2023/06/11 02:12:00;;;;;;;6.03;5.28;;;;;27.40;101426.00;;;;5069365;28;20206;-80
2023/06/11 02:14:27;;;;;;;8.45;5.40;;;;;27.40;101422.00;;;;5069655;28;20201;-80
2023/06/11 02:16:54;;;;;;;5.63;5.13;;;;;27.30;101423.00;;;;5070011;28;20328;-80
2023/06/11 02:19:21;;;;;;;10.93;5.97;;;;;27.30;101420.00;;;;5069778;28;20210;-80
2023/06/11 02:21:50;;;;;;;6.82;5.40;;;;;27.30;101421.00;;;;5070397;28;20199;-80
2023/06/11 02:24:17;;;;;;;8.63;5.75;;;;;27.30;101423.00;;;;5088921;28;20570;-81
2023/06/11 02:26:45;;;;;;;6.20;5.60;;;;;27.30;101420.00;;;;5089752;28;20569;-80
2023/06/11 02:29:12;;;;;;;8.68;5.60;;;;;27.20;101413.00;;;;5088572;28;20419;-81
2023/06/11 02:31:39;;;;;;;5.80;5.20;;;;;27.20;101413.00;;;;5089639;28;20549;-81
2023/06/11 02:34:06;;;;;;;5.70;5.20;;;;;27.20;101419.00;;;;5088771;28;20202;-80
2023/06/11 02:36:34;;;;;;;8.32;6.00;;;;;27.20;101412.00;;;;5089169;28;20226;-80
2023/06/11 02:39:03;;;;;;;6.05;5.45;;;;;27.10;101412.00;;;;5089745;28;20225;-80
2023/06/11 02:41:31;;;;;;;6.80;5.03;;;;;27.10;101411.00;;;;5089281;28;20206;-81
2023/06/11 02:43:58;;;;;;;6.00;4.90;;;;;27.10;101400.00;;;;5089489;28;20202;-80
2023/06/11 02:46:25;;;;;;;5.53;5.00;;;;;27.10;101401.00;;;;5087605;28;20578;-81
2023/06/11 02:48:52;;;;;;;6.10;5.50;;;;;27.10;101404.00;;;;5089154;28;20580;-80
2023/06/11 02:51:22;;;;;;;7.35;5.90;;;;;27.10;101401.00;;;;5089035;28;20206;-81
2023/06/11 02:53:50;;;;;;;7.28;6.10;;;;;27.00;101407.00;;;;5088214;28;20194;-79
2023/06/11 02:56:18;;;;;;;6.97;6.28;;;;;27.00;101404.00;;;;5088883;28;20275;-80
2023/06/11 02:58:47;;;;;;;8.18;5.63;;;;;27.00;101407.00;;;;5089386;28;20199;-80
2023/06/11 03:01:14;;;;;;;7.07;5.05;;;;;27.00;101416.00;;;;5089024;28;21330;-81
2023/06/11 03:03:42;;;;;;;10.98;5.97;;;;;26.90;101417.00;;;;5072871;28;20223;-80
2023/06/11 03:06:15;;;;;;;7.45;5.78;;;;;26.90;101422.00;;;;5068875;28;20195;-81
2023/06/11 03:08:42;;;;;;;5.55;5.05;;;;;26.90;101426.00;;;;5067936;28;20661;-81
2023/06/11 03:11:09;;;;;;;7.55;6.22;;;;;26.80;101423.00;;;;5068941;28;20688;-81
2023/06/11 03:13:38;;;;;;;7.63;5.93;;;;;26.80;101420.00;;;;5068877;28;20194;-79
2023/06/11 03:16:05;;;;;;;6.32;5.72;;;;;26.80;101424.00;;;;5069139;28;20581;-80
2023/06/11 03:18:33;;;;;;;6.68;5.90;;;;;26.80;101420.00;;;;5067627;28;20751;-80
2023/06/11 03:21:00;;;;;;;7.30;6.30;;;;;26.70;101417.00;;;;5069312;28;20207;-80
2023/06/11 03:23:27;;;;;;;6.22;5.63;;;;;26.70;101424.00;;;;5068307;28;20198;-80
2023/06/11 03:25:54;;;;;;;6.97;6.28;;;;;26.70;101425.00;;;;5087713;28;20213;-80
2023/06/11 03:28:22;;;;;;;7.88;6.03;;;;;26.70;101430.00;;;;5088687;28;20210;-80
2023/06/11 03:30:51;;;;;;;5.93;5.32;;;;;26.60;101428.00;;;;5087743;28;20228;-81
2023/06/11 03:33:18;;;;;;;7.20;6.00;;;;;26.60;101430.00;;;;5088222;28;20233;-80
2023/06/11 03:35:46;;;;;;;5.68;4.63;;;;;26.60;101431.00;;;;5088230;28;20218;-80
2023/06/11 03:38:13;;;;;;;6.63;5.38;;;;;26.60;101424.00;;;;5087770;28;20588;-81
2023/06/11 03:40:40;;;;;;;8.52;6.57;;;;;26.60;101428.00;;;;5088251;28;20193;-81
2023/06/11 03:43:08;;;;;;;6.70;6.00;;;;;26.60;101436.00;;;;5086926;28;20190;-80
2023/06/11 03:45:35;;;;;;;8.27;6.65;;;;;26.60;101436.00;;;;5087976;28;20580;-81
2023/06/11 03:48:05;;;;;;;6.57;5.60;;;;;26.60;101433.00;;;;5088389;28;20680;-81
2023/06/11 03:50:32;;;;;;;7.80;6.28;;;;;26.50;101435.00;;;;5088288;28;20297;-80
2023/06/11 03:53:00;;;;;;;6.43;5.80;;;;;26.50;101435.00;;;;5086859;28;20206;-80
2023/06/11 03:55:27;;;;;;;6.05;5.45;;;;;26.50;101435.00;;;;5082816;28;20198;-80
2023/06/11 03:57:54;;;;;;;7.32;6.63;;;;;26.50;101439.00;;;;5088676;28;20205;-81
2023/06/11 04:00:22;;;;;;;6.60;5.80;;;;;26.50;101436.00;;;;5088155;28;20206;-80
2023/06/11 04:02:49;;;;;;;10.77;6.05;;;;;26.50;101433.00;;;;5088269;28;20723;-81
2023/06/11 04:05:18;;;;;;;6.20;5.57;;;;;26.50;101438.00;;;;5088272;28;20656;-80
2023/06/11 04:07:45;;;;;;;7.72;5.47;;;;;26.50;101437.00;;;;5088263;28;20194;-81
2023/06/11 04:10:12;;;;;;;6.25;5.60;;;;;26.50;101432.00;;;;5084457;28;20198;-80
2023/06/11 04:12:40;;;;;;;6.43;5.82;;;;;26.50;101431.00;;;;5067905;28;20571;-80
2023/06/11 04:15:08;;;;;;;6.65;4.90;;;;;26.50;101435.00;;;;5071394;28;20669;-81
2023/06/11 04:17:35;;;;;;;5.60;5.03;;;;;26.50;101429.00;;;;5070922;28;20595;-81
2023/06/11 04:20:03;;;;;;;7.13;6.43;;;;;26.50;101434.00;;;;5071710;28;20661;-80
2023/06/11 04:22:31;;;;;;;6.38;5.75;;;;;26.50;101425.00;;;;5071447;28;20226;-81
2023/06/11 04:24:58;;;;;;;6.60;6.00;;;;;26.50;101436.00;;;;5082274;28;20206;-81
2023/06/11 04:27:26;;;;;;;5.93;5.15;;;;;26.60;101435.00;;;;5089638;28;20198;-80
2023/06/11 04:29:56;;;;;;;6.38;5.78;;;;;26.60;101443.00;;;;5091377;28;20204;-81
2023/06/11 04:32:26;;;;;;;7.53;5.68;;;;;26.60;101435.00;;;;5090570;28;20661;-80
2023/06/11 04:34:56;;;;;;;6.45;5.35;;;;;26.60;101437.00;;;;5091140;28;20205;-80
2023/06/11 04:37:24;;;;;;;6.07;5.50;;;;;26.60;101443.00;;;;5090472;28;20230;-81
2023/06/11 04:39:53;;;;;;;6.85;5.38;;;;;26.60;101442.00;;;;5091579;28;20675;-81
2023/06/11 04:42:20;;;;;;;6.78;5.15;;;;;26.60;101434.00;;;;5091227;28;20690;-80
2023/06/11 04:44:47;;;;;;;5.57;5.07;;;;;26.70;101439.00;;;;5090892;28;20228;-80
2023/06/11 04:47:15;;;;;;;8.10;5.55;;;;;26.70;101440.00;;;;5091580;28;20707;-80
2023/06/11 04:49:44;;;;;;;6.85;5.85;;;;;26.70;101441.00;;;;5090445;28;20554;-80
2023/06/11 04:52:11;;;;;;;7.43;5.57;;;;;26.70;101434.00;;;;5089860;28;20214;-81
2023/06/11 04:54:41;;;;;;;6.95;5.88;;;;;26.70;101441.00;;;;5088010;28;20664;-80
2023/06/11 04:57:10;;;;;;;8.40;6.40;;;;;26.80;101443.00;;;;5070891;28;20226;-81
2023/06/11 04:59:37;;;;;;;6.28;5.57;;;;;26.80;101441.00;;;;5071156;28;20203;-80
2023/06/11 05:02:05;;;;;;;7.50;5.93;;;;;26.80;101438.00;;;;5071440;28;20227;-80
2023/06/11 05:04:32;;;;;;;5.80;5.20;;;;;26.90;101439.00;;;;5070130;28;20207;-80
2023/06/11 05:07:00;;;;;;;5.88;5.05;;;;;26.90;101445.00;;;;5070977;28;20199;-80
2023/06/11 05:09:28;;;;;;;5.65;5.15;;;;;26.90;101432.00;;;;5070991;28;20278;-81
2023/06/11 05:11:55;;;;;;;5.97;5.38;;;;;27.00;101441.00;;;;5070435;28;20198;-81
2023/06/11 05:14:24;;;;;;;5.07;4.68;;;;;27.00;101435.00;;;;5070635;28;20199;-80
2023/06/11 05:16:52;;;;;;;5.97;5.38;;;;;27.10;101434.00;;;;5069840;28;20599;-80
2023/06/11 05:19:19;;;;;;;5.82;5.30;;;;;27.10;101432.00;;;;5071501;28;20203;-80
2023/06/11 05:21:47;;;;;;;5.97;5.40;;;;;27.20;101433.00;;;;5071039;28;20206;-81
2023/06/11 05:24:19;;;;;;;6.00;5.20;;;;;27.20;101438.00;;;;5074895;28;20198;-81
2023/06/11 05:26:46;;;;;;;6.00;5.40;;;;;27.30;101439.00;;;;5091157;28;20540;-80
2023/06/11 05:29:14;;;;;;;7.07;5.90;;;;;27.30;101437.00;;;;5090115;28;20667;-80
2023/06/11 05:31:42;;;;;;;6.40;5.80;;;;;27.40;101440.00;;;;5090842;28;20237;-80
2023/06/11 05:34:10;;;;;;;5.57;5.03;;;;;27.50;101439.00;;;;5091448;28;20209;-80
2023/06/11 05:36:37;;;;;;;8.00;5.53;;;;;27.50;101439.00;;;;5088699;28;20222;-80
2023/06/11 05:39:04;;;;;;;5.78;5.18;;;;;27.60;101440.00;;;;5090557;28;20209;-80
2023/06/11 05:41:32;;;;;;;5.60;5.10;;;;;27.60;101445.00;;;;5090277;28;20210;-80
2023/06/11 05:43:59;;;;;;;5.38;4.88;;;;;27.70;101442.00;;;;5090034;28;20202;-80
2023/06/11 05:46:28;;;;;;;6.45;5.35;;;;;27.80;101443.00;;;;5089953;28;20205;-79
2023/06/11 05:48:57;;;;;;;5.43;5.00;;;;;27.80;101452.00;;;;5089456;28;20194;-81
2023/06/11 05:51:24;;;;;;;6.88;5.32;;;;;27.90;101448.00;;;;5089633;28;20225;-80
2023/06/11 05:53:52;;;;;;;6.32;5.63;;;;;27.90;101445.00;;;;5088626;28;20206;-80
2023/06/11 05:56:19;;;;;;;5.45;4.95;;;;;28.00;101453.00;;;;5088731;28;20226;-79
2023/06/11 05:58:46;;;;;;;6.20;5.35;;;;;28.10;101455.00;;;;5089893;28;20202;-80
2023/06/11 06:01:14;;;;;;;6.85;5.97;;;;;28.10;101450.00;;;;5089071;28;20186;-80
2023/06/11 06:03:41;;;;;;;6.70;6.00;;;;;28.20;101448.00;;;;5089133;28;20657;-80
2023/06/11 06:06:10;;;;;;;6.18;5.55;;;;;28.30;101455.00;;;;5088763;28;20629;-80
2023/06/11 06:08:37;;;;;;;6.15;5.55;;;;;28.30;101451.00;;;;5089499;28;20589;-80
2023/06/11 06:11:04;;;;;;;6.72;5.18;;;;;28.40;101460.00;;;;5070056;28;20652;-80
2023/06/11 06:13:32;;;;;;;6.38;4.85;;;;;28.40;101454.00;;;;5068837;28;20583;-80
2023/06/11 06:15:59;;;;;;;6.20;5.60;;;;;28.50;101459.00;;;;5068256;28;20681;-79
2023/06/11 06:18:27;;;;;;;6.82;5.68;;;;;28.60;101456.00;;;;5068830;28;20684;-79
2023/06/11 06:20:55;;;;;;;5.63;5.13;;;;;28.60;101459.00;;;;5068810;28;20253;-79
2023/06/11 06:23:23;;;;;;;5.53;4.93;;;;;28.70;101463.00;;;;5068547;28;20194;-80
2023/06/11 06:25:51;;;;;;;7.72;5.03;;;;;28.80;101462.00;;;;5072094;28;20198;-80
2023/06/11 06:28:18;;;;;;;6.00;5.07;;;;;28.80;101465.00;;;;5088848;28;20210;-80
2023/06/11 06:30:45;;;;;;;5.82;5.25;;;;;28.90;101461.00;;;;5088697;28;20324;-80
2023/06/11 06:33:12;;;;;;;6.00;5.50;;;;;29.00;101471.00;;;;5089041;28;20513;-80
2023/06/11 06:35:40;;;;;;;5.28;4.82;;;;;29.00;101469.00;;;;5089420;28;20826;-80
2023/06/11 06:38:07;;;;;;;5.25;4.75;;;;;29.10;101464.00;;;;5088871;28;20222;-80
2023/06/11 06:40:36;;;;;;;5.28;4.78;;;;;29.10;101469.00;;;;5089481;28;20201;-80
2023/06/11 06:43:03;;;;;;;5.38;4.93;;;;;29.20;101472.00;;;;5088238;28;20408;-80
2023/06/11 06:45:30;;;;;;;5.85;4.93;;;;;29.30;101475.00;;;;5089173;28;20198;-82
2023/06/11 06:47:57;;;;;;;6.50;5.90;;;;;29.30;101477.00;;;;5089379;28;20199;-80
2023/06/11 06:50:25;;;;;;;7.78;5.55;;;;;29.40;101478.00;;;;5088027;28;20205;-81
2023/06/11 06:52:52;;;;;;;5.28;4.78;;;;;29.40;101483.00;;;;5088594;28;20202;-81
2023/06/11 06:55:19;;;;;;;6.05;5.45;;;;;29.50;101485.00;;;;5087988;28;20206;-81
2023/06/11 06:57:48;;;;;;;6.30;5.15;;;;;29.60;101490.00;;;;5088208;28;20225;-80
2023/06/11 07:00:16;;;;;;;6.30;4.95;;;;;29.60;101477.00;;;;5084627;28;20207;-80
2023/06/11 07:02:43;;;;;;;5.70;5.15;;;;;29.70;101483.00;;;;5067993;28;20223;-80
2023/06/11 07:05:11;;;;;;;5.55;5.05;;;;;29.70;101485.00;;;;5067509;28;20205;-80
2023/06/11 07:07:38;;;;;;;5.65;5.15;;;;;29.80;101491.00;;;;5067719;28;20222;-80
2023/06/11 07:10:06;;;;;;;5.43;4.93;;;;;29.90;101494.00;;;;5068271;28;20669;-80
2023/06/11 07:12:34;;;;;;;4.85;4.30;;;;;29.90;101499.00;;;;5067604;28;20199;-80
2023/06/11 07:15:04;;;;;;;5.55;5.03;;;;;30.00;101497.00;;;;5067785;28;20195;-79
2023/06/11 07:17:31;;;;;;;6.45;5.13;;;;;30.00;101495.00;;;;5068458;28;20654;-79
2023/06/11 07:19:58;;;;;;;6.03;5.53;;;;;30.10;101494.00;;;;5068916;28;20230;-80
2023/06/11 07:22:25;;;;;;;6.18;5.57;;;;;30.20;101495.00;;;;5067994;28;20202;-79
2023/06/11 07:24:53;;;;;;;8.98;5.82;;;;;30.30;101502.00;;;;5069191;28;20199;-80
2023/06/11 07:27:20;;;;;;;7.32;5.40;;;;;30.40;101496.00;;;;5084097;28;20205;-80
2023/06/11 07:29:47;;;;;;;6.22;5.63;;;;;30.40;101500.00;;;;5089106;28;20198;-80
2023/06/11 07:32:16;;;;;;;5.78;5.20;;;;;30.50;101498.00;;;;5088470;28;20241;-80
2023/06/11 07:34:43;;;;;;;7.10;5.13;;;;;30.60;101501.00;;;;5087588;28;20206;-80
2023/06/11 07:37:11;;;;;;;5.78;5.28;;;;;30.70;101495.00;;;;5088513;28;20222;-80
2023/06/11 07:39:38;;;;;;;5.78;5.28;;;;;30.80;101496.00;;;;5087763;28;20679;-80
2023/06/11 07:42:06;;;;;;;6.90;5.57;;;;;30.90;101492.00;;;;5088967;28;20202;-80
2023/06/11 07:44:33;;;;;;;5.90;5.30;;;;;30.90;101494.00;;;;5088707;28;20283;-80
2023/06/11 07:47:01;;;;;;;5.43;4.93;;;;;31.00;101494.00;;;;5088345;28;20205;-79
2023/06/11 07:49:30;;;;;;;5.72;5.13;;;;;31.10;101491.00;;;;5092546;28;20198;-81
2023/06/11 07:51:57;;;;;;;5.53;4.93;;;;;31.20;101494.00;;;;5092059;28;20217;-81
2023/06/11 07:54:24;;;;;;;7.05;5.30;;;;;31.20;101494.00;;;;5092074;28;20206;-81
2023/06/11 07:56:51;;;;;;;5.72;5.15;;;;;31.30;101490.00;;;;5092397;28;20190;-80
2023/06/11 07:59:19;;;;;;;8.88;5.80;;;;;31.40;101489.00;;;;5091309;28;20202;-81
2023/06/11 08:01:46;;;;;;;6.53;5.93;;;;;31.50;101490.00;;;;5091898;28;20213;-80
2023/06/11 08:04:13;;;;;;;6.70;6.10;;;;;31.60;101494.00;;;;5091617;28;20206;-81
2023/06/11 08:06:43;;;;;;;6.32;5.25;;;;;31.70;101493.00;;;;5091688;28;20190;-80
2023/06/11 08:09:11;;;;;;;4.75;4.35;;;;;31.80;101498.00;;;;5080034;28;20202;-80
2023/06/11 08:11:41;;;;;;;6.07;5.47;;;;;31.90;101496.00;;;;5071243;28;20216;-80
2023/06/11 08:14:08;;;;;;;5.90;5.38;;;;;32.00;101498.00;;;;5071070;28;20208;-80
2023/06/11 08:16:36;;;;;;;5.35;4.85;;;;;32.10;101495.00;;;;5070654;28;20256;-79
2023/06/11 08:19:03;;;;;;;7.45;5.88;;;;;32.20;101494.00;;;;5070111;28;20631;-80
2023/06/11 08:21:30;;;;;;;5.60;5.03;;;;;32.30;101497.00;;;;5071344;28;20562;-80
2023/06/11 08:23:59;;;;;;;5.45;4.95;;;;;32.30;101490.00;;;;5071157;28;20198;-80
2023/06/11 08:26:27;;;;;;;6.07;5.55;;;;;32.40;101489.00;;;;5079955;28;20202;-80
2023/06/11 08:28:54;;;;;;;7.07;5.55;;;;;32.50;101493.00;;;;5091327;28;20206;-79
2023/06/11 08:31:21;;;;;;;6.10;5.50;;;;;32.60;101495.00;;;;5091124;28;20598;-80
2023/06/11 08:33:49;;;;;;;5.57;5.03;;;;;32.70;101486.00;;;;5091389;28;20612;-80
2023/06/11 08:36:16;;;;;;;4.93;4.53;;;;;32.80;101487.00;;;;5091409;28;20202;-80
2023/06/11 08:38:45;;;;;;;7.13;5.18;;;;;32.90;101490.00;;;;5090695;28;20228;-80
2023/06/11 08:41:14;;;;;;;5.93;5.32;;;;;33.00;101478.00;;;;5090887;28;20202;-80
2023/06/11 08:43:42;;;;;;;9.98;5.07;;;;;33.10;101484.00;;;;5074886;28;20293;-80
2023/06/11 08:46:14;;;;;;;5.80;5.30;;;;;33.10;101484.00;;;;5070506;28;20198;-80
2023/06/11 08:48:44;;;;;;;5.63;5.05;;;;;33.30;101486.00;;;;5070234;28;20199;-80
2023/06/11 08:51:13;;;;;;;5.70;5.20;;;;;33.40;101484.00;;;;5070113;28;20186;-80
2023/06/11 08:53:40;;;;;;;5.05;4.65;;;;;33.50;101483.00;;;;5070514;28;20227;-82
2023/06/11 08:56:08;;;;;;;5.75;5.05;;;;;33.60;101483.00;;;;5087992;28;20201;-80
2023/06/11 08:58:37;;;;;;;5.78;4.93;;;;;33.60;101481.00;;;;5089753;28;20232;-81
2023/06/11 09:01:10;;;;;;;7.25;5.90;;;;;33.70;101481.00;;;;5071576;28;20222;-80
2023/06/11 09:03:37;;;;;;;5.88;5.35;;;;;33.80;101485.00;;;;5070793;28;20276;-80
2023/06/11 09:06:05;;;;;;;7.93;4.85;;;;;33.90;101476.00;;;;5070962;28;20292;-80
2023/06/11 09:08:32;;;;;;;5.95;5.30;;;;;34.00;101486.00;;;;5070701;28;20207;-80
2023/06/11 09:11:00;;;;;;;5.35;4.95;;;;;34.10;101475.00;;;;5070802;28;20664;-81
2023/06/11 09:13:28;;;;;;;5.90;5.40;;;;;34.20;101476.00;;;;5070920;28;20652;-81
2023/06/11 09:15:57;;;;;;;5.68;5.18;;;;;34.30;101480.00;;;;5071076;28;20190;-80
2023/06/11 09:18:26;;;;;;;6.55;5.60;;;;;34.40;101478.00;;;;5070709;28;20226;-80
2023/06/11 09:20:55;;;;;;;6.55;5.88;;;;;34.50;101476.00;;;;5070638;28;20203;-81
2023/06/11 09:23:26;;;;;;;7.43;5.30;;;;;34.60;101477.00;;;;5070754;28;20209;-80
2023/06/11 09:25:54;;;;;;;6.85;4.18;;;;;34.70;101474.00;;;;5079778;28;20918;-81
2023/06/11 09:28:22;;;;;;;6.43;5.82;;;;;34.80;101469.00;;;;5090555;28;20755;-81
2023/06/11 09:30:57;;;;;;;5.60;5.03;;;;;34.90;101469.00;;;;5090901;28;20233;-81
2023/06/11 09:33:25;;;;;;;6.28;5.07;;;;;35.10;101480.00;;;;5089857;28;20212;-80
2023/06/11 09:35:52;;;;;;;5.85;5.25;;;;;35.20;101480.00;;;;5091094;28;20659;-81
2023/06/11 09:38:21;;;;;;;5.65;5.15;;;;;35.30;101478.00;;;;5089957;28;20702;-81
2023/06/11 09:40:49;;;;;;;5.40;4.90;;;;;35.30;101474.00;;;;5090623;28;20189;-81
2023/06/11 09:43:20;;;;;;;5.03;4.57;;;;;35.40;101473.00;;;;5090129;28;20194;-80
2023/06/11 09:45:52;;;;;;;5.38;4.88;;;;;35.50;101480.00;;;;5090914;28;20226;-83
2023/06/11 09:48:21;;;;;;;7.97;5.00;;;;;35.50;101475.00;;;;5089797;28;20200;-82
2023/06/11 09:50:50;;;;;;;5.20;4.70;;;;;35.60;101478.00;;;;5089879;28;20202;-81
2023/06/11 09:53:18;;;;;;;5.13;4.53;;;;;35.70;101483.00;;;;5090847;28;20194;-81
2023/06/11 09:55:48;;;;;;;4.93;4.53;;;;;35.80;101477.00;;;;5088631;28;20656;-80
2023/06/11 09:58:22;;;;;;;5.90;4.15;;;;;35.80;101477.00;;;;5090228;28;20608;-80
2023/06/11 10:00:50;;;;;;;5.05;4.57;;;;;35.90;101479.00;;;;5089982;28;20204;-80
2023/06/11 10:03:17;;;;;;;5.32;4.82;;;;;35.90;101474.00;;;;5090277;28;20228;-80
2023/06/11 10:05:46;;;;;;;4.60;4.20;;;;;36.00;101478.00;;;;5090422;28;20379;-80
2023/06/11 10:08:17;;;;;;;6.22;5.10;;;;;36.00;101481.00;;;;5076663;28;20203;-83
2023/06/11 10:10:46;;;;;;;4.68;4.28;;;;;36.10;101477.00;;;;5069314;28;20195;-81
2023/06/11 10:13:26;;;;;;;4.55;4.15;;;;;36.20;101482.00;;;;5069500;28;20198;-82
2023/06/11 10:15:54;;;;;;;6.82;4.68;;;;;36.30;101485.00;;;;5069986;28;20206;-82
2023/06/11 10:18:25;;;;;;;5.10;4.60;;;;;36.30;101478.00;;;;5068931;28;20234;-81
2023/06/11 10:20:55;;;;;;;5.95;4.07;;;;;36.30;101469.00;;;;5069489;28;20661;-81
2023/06/11 10:23:22;;;;;;;4.53;4.10;;;;;36.40;101482.00;;;;5069306;28;20585;-81
2023/06/11 10:25:55;;;;;;;5.63;5.13;;;;;36.40;101481.00;;;;5069888;28;20569;-81
2023/06/11 10:28:35;;;;;;;5.22;4.72;;;;;36.50;101485.00;;;;5069460;28;20217;-81
2023/06/11 10:31:02;;;;;;;4.65;4.25;;;;;36.50;101475.00;;;;5069115;28;20230;-81
2023/06/11 10:33:37;;;;;;;5.35;4.85;;;;;36.40;101481.00;;;;5069098;28;20210;-82
2023/06/11 10:36:06;;;;;;;5.65;4.65;;;;;36.50;101485.00;;;;5069028;28;20675;-82
2023/06/11 10:38:38;;;;;;;8.60;4.45;;;;;36.50;101477.00;;;;5069206;28;20590;-82
2023/06/11 10:41:06;;;;;;;6.22;5.03;;;;;36.60;101483.00;;;;5069852;28;20210;-80
2023/06/11 10:43:36;;;;;;;5.43;4.95;;;;;36.60;101474.00;;;;5069016;28;20202;-81
2023/06/11 10:46:04;;;;;;;4.95;4.28;;;;;36.60;101474.00;;;;5068990;28;20568;-80
2023/06/11 10:48:32;;;;;;;7.00;4.85;;;;;36.60;101470.00;;;;5068925;28;20206;-81
2023/06/11 10:51:03;;;;;;;6.03;5.03;;;;;36.60;101466.00;;;;5068295;28;20209;-81
2023/06/11 10:53:41;;;;;;;5.03;4.53;;;;;36.60;101464.00;;;;5069098;28;20199;-82
2023/06/11 10:56:10;;;;;;;4.90;4.43;;;;;36.70;101460.00;;;;5085667;28;20286;-81
2023/06/11 10:58:38;;;;;;;4.47;4.07;;;;;36.70;101467.00;;;;5081299;28;20781;-81
2023/06/11 11:01:07;;;;;;;4.75;3.97;;;;;36.70;101470.00;;;;5084073;28;20216;-81
2023/06/11 11:03:35;;;;;;;5.13;4.65;;;;;36.70;101471.00;;;;5088982;28;20226;-82
2023/06/11 11:06:03;;;;;;;4.50;4.05;;;;;36.70;101467.00;;;;5089206;28;20202;-81
2023/06/11 11:08:30;;;;;;;4.32;3.92;;;;;36.80;101470.00;;;;5088291;28;20228;-79
2023/06/11 11:11:00;;;;;;;4.75;4.25;;;;;36.80;101466.00;;;;5089068;28;20204;-82
2023/06/11 11:13:27;;;;;;;3.95;3.65;;;;;36.80;101463.00;;;;5088430;28;20198;-82
2023/06/11 11:15:54;;;;;;;4.32;3.92;;;;;36.90;101463.00;;;;5087494;28;20216;-81
2023/06/11 11:18:22;;;;;;;5.60;3.70;;;;;36.90;101465.00;;;;5088432;28;20235;-81
2023/06/11 11:20:54;;;;;;;5.10;4.38;;;;;36.90;101459.00;;;;5087858;28;20202;-81
2023/06/11 11:23:24;;;;;;;5.20;4.55;;;;;37.00;101452.00;;;;5087627;28;20205;-81
2023/06/11 11:25:52;;;;;;;4.00;3.60;;;;;37.00;101459.00;;;;5088456;28;20214;-81
2023/06/11 11:28:21;;;;;;;5.68;4.40;;;;;37.00;101458.00;;;;5087963;28;20205;-82
2023/06/11 11:30:50;;;;;;;7.13;4.50;;;;;37.10;101455.00;;;;5088848;28;20229;-80
2023/06/11 11:33:18;;;;;;;4.72;4.30;;;;;37.10;101461.00;;;;5086449;28;20642;-81
2023/06/11 11:35:49;;;;;;;5.72;4.38;;;;;37.00;101453.00;;;;5088379;28;20208;-81
2023/06/11 11:38:17;;;;;;;4.03;3.72;;;;;37.10;101447.00;;;;5088345;28;20225;-80
2023/06/11 11:40:45;;;;;;;3.92;3.55;;;;;37.10;101441.00;;;;5088642;28;20202;-81
2023/06/11 11:43:13;;;;;;;7.53;3.85;;;;;37.10;101450.00;;;;5088118;28;20205;-81
2023/06/11 11:45:47;;;;;;;4.65;4.20;;;;;37.10;101449.00;;;;5088209;28;20263;-82
2023/06/11 11:48:16;;;;;;;4.40;4.00;;;;;37.20;101450.00;;;;5087594;28;20194;-83
2023/06/11 11:50:45;;;;;;;11.00;4.30;;;;;37.20;101448.00;;;;5087323;28;20216;-81
2023/06/11 11:53:15;;;;;;;4.30;3.90;;;;;37.20;101453.00;;;;5088609;28;20686;-81
2023/06/11 11:55:43;;;;;;;4.70;4.28;;;;;37.20;101451.00;;;;5088084;28;20668;-81
2023/06/11 11:58:12;;;;;;;4.72;4.32;;;;;37.20;101441.00;;;;5088363;28;20225;-81
2023/06/11 12:00:56;;;;;;;4.10;3.70;;;;;37.20;101441.00;;;;5086912;28;20205;-82
2023/06/11 12:03:24;;;;;;;5.07;4.15;;;;;37.30;101439.00;;;;5087539;28;20221;-81
2023/06/11 12:05:59;;;;;;;5.78;4.40;;;;;37.20;101437.00;;;;5087891;28;20205;-81
2023/06/11 12:08:27;;;;;;;4.30;3.97;;;;;37.30;101440.00;;;;5068097;28;20197;-81
2023/06/11 12:10:55;;;;;;;3.92;3.55;;;;;37.30;101436.00;;;;5067957;28;20733;-81
2023/06/11 12:13:23;;;;;;;3.65;3.35;;;;;37.30;101433.00;;;;5067798;28;20194;-81
2023/06/11 12:15:50;;;;;;;4.32;3.92;;;;;37.30;101424.00;;;;5068215;28;20198;-81